CES weather

Cessnock Airport
New South Wales, Australia

Public forecast

Using degrees Celsius for public forecast. Weather courtesy of forecast.io.

Closest aviation weather report (METAR) to Cessnock Airport

Closest report is Newcastle Airport, 24.8 nm (46.0 km) E. Retrieved 2019/10/17 22:30 UTC (14 minutes ago):

YWLM 172230Z 29012KT CAVOK 18/M00 Q1018 NOSIG

Closest aviation forecast (TAF) to Cessnock Airport

Closest forecast is Newcastle Airport, 24.8 nm (46.0 km) E. Retrieved 2019/10/17 18:36 UTC (4 hours ago):

TAF YWLM 171641Z 1718/1818 29008KT CAVOK FM180000 16012KT CAVOK FM180400 10012KT CAVOK FM180800 04010KT CAVOK FM181200 32005KT CAVOK